Time;durP1;ratioP1;P1;durP2;ratioP2;P2;SDS_P1;SDS_P2;PMS_P1;PMS_P2;Temp;Humidity;BMP_temperature;BMP_pressure;BME280_temperature;BME280_humidity;BME280_pressure;Samples;Min_cycle;Max_cycle;Signal;HPM_P1;HPM_P2
2022/09/08 00:00:26;;;;;;;11.90;7.18;;;;;;;;;;5048933;28;20029;-75
2022/09/08 00:02:52;;;;;;;9.93;7.78;;;;;;;;;;5048181;28;20021;-76
2022/09/08 00:05:22;;;;;;;13.05;7.13;;;;;;;;;;5049544;28;20772;-76
2022/09/08 00:07:48;;;;;;;11.05;7.15;;;;;;;;;;5047661;28;20056;-76
2022/09/08 00:10:13;;;;;;;13.85;7.22;;;;;;;;;;5049352;28;20021;-76
2022/09/08 00:12:42;;;;;;;9.73;8.02;;;;;;;;;;5047489;28;20029;-76
2022/09/08 00:15:09;;;;;;;9.70;6.88;;;;;;;;;;5049465;28;20676;-76
2022/09/08 00:17:35;;;;;;;12.98;6.75;;;;;;;;;;5048732;28;20373;-76
2022/09/08 00:20:01;;;;;;;10.90;6.60;;;;;;;;;;5047558;28;20029;-76
2022/09/08 00:22:27;;;;;;;20.60;7.10;;;;;;;;;;5048630;28;20113;-76
2022/09/08 00:25:14;;;;;;;9.13;6.70;;;;;;;;;;5047471;28;20052;-77
2022/09/08 00:27:39;;;;;;;11.88;7.40;;;;;;;;;;5048705;28;20021;-76
2022/09/08 00:30:06;;;;;;;10.45;7.20;;;;;;;;;;5051322;28;20120;-76
2022/09/08 00:32:31;;;;;;;13.70;7.30;;;;;;;;;;5051229;28;20028;-76
2022/09/08 00:34:58;;;;;;;9.57;6.93;;;;;;;;;;5053142;28;20028;-76
2022/09/08 00:37:26;;;;;;;8.50;6.78;;;;;;;;;;5052471;28;20025;-76
2022/09/08 00:39:51;;;;;;;13.77;6.88;;;;;;;;;;5054260;28;20151;-76
2022/09/08 00:42:16;;;;;;;15.30;6.68;;;;;;;;;;5051771;28;20111;-76
2022/09/08 00:44:49;;;;;;;11.55;6.60;;;;;;;;;;5051574;28;20046;-75
2022/09/08 00:47:28;;;;;;;11.90;6.68;;;;;;;;;;5052176;28;20028;-76
2022/09/08 00:50:02;;;;;;;8.70;6.43;;;;;;;;;;5051881;28;20051;-76
2022/09/08 00:52:35;;;;;;;11.85;7.22;;;;;;;;;;5053059;28;20544;-76
2022/09/08 00:55:00;;;;;;;10.27;7.32;;;;;;;;;;5052635;28;20043;-76
2022/09/08 00:57:26;;;;;;;10.70;6.93;;;;;;;;;;5050938;28;20115;-76
2022/09/08 00:59:52;;;;;;;10.57;7.35;;;;;;;;;;5050992;28;20032;-76
2022/09/08 01:02:24;;;;;;;9.30;7.05;;;;;;;;;;5051265;28;20025;-76
2022/09/08 01:04:53;;;;;;;11.57;7.13;;;;;;;;;;5053326;28;20033;-76
2022/09/08 01:13:20;;;;;;;10.77;7.93;;;;;;;;;;5052108;28;20086;-76
2022/09/08 01:15:46;;;;;;;11.75;8.35;;;;;;;;;;5051112;28;20040;-76
2022/09/08 01:18:12;;;;;;;10.77;8.85;;;;;;;;;;5052415;28;20029;-76
2022/09/08 01:20:50;;;;;;;14.02;8.07;;;;;;;;;;5051912;28;20028;-75
2022/09/08 01:23:49;;;;;;;12.75;8.95;;;;;;;;;;5050580;28;20031;-75
2022/09/08 01:26:31;;;;;;;17.58;8.45;;;;;;;;;;5051696;28;20036;-76
2022/09/08 01:29:05;;;;;;;11.98;8.52;;;;;;;;;;5050069;28;20132;-76
2022/09/08 01:31:32;;;;;;;12.10;8.80;;;;;;;;;;5049952;28;20692;-76
2022/09/08 01:33:59;;;;;;;15.13;10.23;;;;;;;;;;5050249;28;20048;-75
2022/09/08 01:36:25;;;;;;;14.88;9.35;;;;;;;;;;5050136;28;20036;-76
2022/09/08 01:38:50;;;;;;;13.23;10.00;;;;;;;;;;5049406;28;20037;-76
2022/09/08 01:41:16;;;;;;;11.88;9.35;;;;;;;;;;5050223;28;20107;-79
2022/09/08 01:43:41;;;;;;;16.23;9.48;;;;;;;;;;5051461;28;20025;-78
2022/09/08 01:46:07;;;;;;;59.88;43.80;;;;;;;;;;5050329;28;20108;-78
2022/09/08 01:48:33;;;;;;;26.15;19.88;;;;;;;;;;5051532;28;20079;-79
2022/09/08 01:51:00;;;;;;;16.15;12.13;;;;;;;;;;5051856;28;20571;-80
2022/09/08 01:53:27;;;;;;;15.70;12.13;;;;;;;;;;5051444;28;20029;-78
2022/09/08 01:55:52;;;;;;;18.88;12.18;;;;;;;;;;5049829;28;20373;-78
2022/09/08 01:58:18;;;;;;;19.38;11.63;;;;;;;;;;5049737;28;20033;-78
2022/09/08 02:00:43;;;;;;;21.83;12.27;;;;;;;;;;5049416;28;20033;-78
2022/09/08 02:03:11;;;;;;;17.30;11.80;;;;;;;;;;5051200;28;20035;-78
2022/09/08 02:05:40;;;;;;;19.20;12.00;;;;;;;;;;5050688;28;20040;-78
2022/09/08 02:08:07;;;;;;;16.17;11.48;;;;;;;;;;5049934;28;20467;-78
2022/09/08 02:10:33;;;;;;;18.13;12.18;;;;;;;;;;5050545;28;20449;-78
2022/09/08 02:12:59;;;;;;;20.55;12.95;;;;;;;;;;5050725;28;20025;-79
2022/09/08 02:15:24;;;;;;;26.35;12.10;;;;;;;;;;5051078;28;20337;-79
2022/09/08 02:17:50;;;;;;;20.27;11.90;;;;;;;;;;5051121;28;20048;-79
2022/09/08 02:20:15;;;;;;;17.88;11.93;;;;;;;;;;5049247;28;20032;-78
2022/09/08 02:22:42;;;;;;;56.47;15.48;;;;;;;;;;5049754;28;20040;-79
2022/09/08 02:25:08;;;;;;;20.33;12.20;;;;;;;;;;5050801;28;20032;-78
2022/09/08 02:27:33;;;;;;;17.38;12.10;;;;;;;;;;5051279;28;20032;-78
2022/09/08 02:29:59;;;;;;;19.92;12.65;;;;;;;;;;5049209;28;20489;-79
2022/09/08 02:32:24;;;;;;;46.40;13.23;;;;;;;;;;5050603;28;20051;-78
2022/09/08 02:34:50;;;;;;;34.25;15.20;;;;;;;;;;5049433;28;20033;-79
2022/09/08 02:37:16;;;;;;;18.65;13.18;;;;;;;;;;5050713;28;20075;-79
2022/09/08 02:39:41;;;;;;;35.60;14.23;;;;;;;;;;5050500;28;20060;-79
2022/09/08 02:42:08;;;;;;;22.88;13.52;;;;;;;;;;5051102;28;20033;-78
2022/09/08 02:44:34;;;;;;;23.48;12.63;;;;;;;;;;5050899;28;20058;-78
2022/09/08 02:47:00;;;;;;;20.90;13.32;;;;;;;;;;5050573;28;20031;-79
2022/09/08 02:49:25;;;;;;;35.00;14.93;;;;;;;;;;5051440;28;20427;-79
2022/09/08 02:51:50;;;;;;;23.80;14.25;;;;;;;;;;5052546;28;20033;-78
2022/09/08 02:54:16;;;;;;;22.77;13.10;;;;;;;;;;5051133;28;20501;-79
2022/09/08 02:56:41;;;;;;;19.80;13.70;;;;;;;;;;5048840;28;20115;-79
2022/09/08 02:59:07;;;;;;;23.13;15.02;;;;;;;;;;5048926;28;20036;-79
2022/09/08 03:01:32;;;;;;;27.75;14.65;;;;;;;;;;5049776;28;20029;-78
2022/09/08 03:03:58;;;;;;;33.78;15.30;;;;;;;;;;5050384;28;20082;-79
2022/09/08 03:06:23;;;;;;;22.55;14.80;;;;;;;;;;5048562;28;20123;-78
2022/09/08 03:08:49;;;;;;;34.42;14.40;;;;;;;;;;5050258;28;20048;-78
2022/09/08 03:11:16;;;;;;;21.65;14.27;;;;;;;;;;5050138;28;20114;-79
2022/09/08 03:13:42;;;;;;;21.17;14.07;;;;;;;;;;5048682;28;20396;-79
2022/09/08 03:16:08;;;;;;;22.67;14.85;;;;;;;;;;5049911;28;20112;-79
2022/09/08 03:18:33;;;;;;;24.42;14.45;;;;;;;;;;5050079;28;20024;-79
2022/09/08 03:21:04;;;;;;;20.25;15.52;;;;;;;;;;5049488;28;20416;-79
2022/09/08 03:23:31;;;;;;;31.10;17.38;;;;;;;;;;5049518;28;20037;-79
2022/09/08 03:26:04;;;;;;;26.85;16.35;;;;;;;;;;5068678;28;20021;-79
2022/09/08 03:28:30;;;;;;;25.77;17.00;;;;;;;;;;5068315;28;20063;-79
2022/09/08 03:30:56;;;;;;;26.23;18.45;;;;;;;;;;5069320;28;20032;-79
2022/09/08 03:33:21;;;;;;;38.05;19.52;;;;;;;;;;5071611;28;20031;-80
2022/09/08 03:35:47;;;;;;;33.13;21.00;;;;;;;;;;5073082;28;20025;-79
2022/09/08 03:38:15;;;;;;;32.83;21.42;;;;;;;;;;5074139;28;20057;-79
2022/09/08 03:40:41;;;;;;;37.10;22.38;;;;;;;;;;5072581;28;20042;-79
2022/09/08 03:43:08;;;;;;;43.35;24.33;;;;;;;;;;5070243;28;20028;-79
2022/09/08 03:45:33;;;;;;;33.00;22.63;;;;;;;;;;5070416;28;20098;-79
2022/09/08 03:47:59;;;;;;;40.42;24.83;;;;;;;;;;5069936;28;20066;-79
2022/09/08 03:50:24;;;;;;;30.77;21.98;;;;;;;;;;5069741;28;20400;-79
2022/09/08 03:52:50;;;;;;;30.50;19.92;;;;;;;;;;5068161;28;20492;-77
2022/09/08 03:55:16;;;;;;;30.17;18.60;;;;;;;;;;5068074;28;20070;-77
2022/09/08 03:57:42;;;;;;;39.97;21.15;;;;;;;;;;5067869;28;20029;-76
2022/09/08 04:00:09;;;;;;;32.78;21.63;;;;;;;;;;5068560;28;20377;-76
2022/09/08 04:02:35;;;;;;;29.27;19.35;;;;;;;;;;5070818;28;20029;-75
2022/09/08 04:05:01;;;;;;;31.83;20.95;;;;;;;;;;5073337;28;20036;-75
2022/09/08 04:07:29;;;;;;;29.35;20.20;;;;;;;;;;5073344;28;20028;-75
2022/09/08 04:09:56;;;;;;;33.25;19.90;;;;;;;;;;5072158;28;20028;-76
2022/09/08 04:12:23;;;;;;;35.78;19.98;;;;;;;;;;5071205;28;20032;-76
2022/09/08 04:14:49;;;;;;;28.30;20.17;;;;;;;;;;5073637;28;20025;-77
2022/09/08 04:17:15;;;;;;;46.53;22.20;;;;;;;;;;5071957;28;20082;-77
2022/09/08 04:19:41;;;;;;;33.70;20.90;;;;;;;;;;5071863;28;20024;-77
2022/09/08 04:22:06;;;;;;;39.85;20.80;;;;;;;;;;5071534;28;20101;-77
2022/09/08 04:24:32;;;;;;;31.38;19.30;;;;;;;;;;5062019;28;20032;-76
2022/09/08 04:26:58;;;;;;;27.92;18.52;;;;;;;;;;5051687;28;20036;-76
2022/09/08 04:29:24;;;;;;;29.27;18.42;;;;;;;;;;5051146;28;20052;-77
2022/09/08 04:31:49;;;;;;;28.30;20.13;;;;;;;;;;5052916;28;20036;-77
2022/09/08 04:34:15;;;;;;;33.88;19.52;;;;;;;;;;5052314;28;20098;-77
2022/09/08 04:36:42;;;;;;;27.67;17.30;;;;;;;;;;5053123;28;20299;-77
2022/09/08 04:39:08;;;;;;;30.95;18.65;;;;;;;;;;5051822;28;20432;-78
2022/09/08 04:41:34;;;;;;;24.58;16.10;;;;;;;;;;5053036;28;20082;-76
2022/09/08 04:44:01;;;;;;;26.08;17.70;;;;;;;;;;5052793;28;20396;-76
2022/09/08 04:46:27;;;;;;;28.52;16.80;;;;;;;;;;5051693;28;20032;-76
2022/09/08 04:48:53;;;;;;;24.58;16.38;;;;;;;;;;5052541;28;20124;-76
2022/09/08 04:51:19;;;;;;;26.92;16.88;;;;;;;;;;5054531;28;20096;-77
2022/09/08 04:53:47;;;;;;;24.85;16.52;;;;;;;;;;5055011;28;20059;-75
2022/09/08 04:56:13;;;;;;;24.33;15.68;;;;;;;;;;5051479;28;20481;-77
2022/09/08 04:58:41;;;;;;;25.08;16.38;;;;;;;;;;5050725;28;20029;-76
2022/09/08 05:01:13;;;;;;;21.48;15.85;;;;;;;;;;5051439;28;20404;-76
2022/09/08 05:03:38;;;;;;;29.10;16.58;;;;;;;;;;5053053;28;20028;-77
2022/09/08 05:06:13;;;;;;;26.08;16.52;;;;;;;;;;5053530;28;20032;-77
2022/09/08 05:08:40;;;;;;;32.60;16.50;;;;;;;;;;5052746;28;20025;-77
2022/09/08 05:11:06;;;;;;;25.48;17.05;;;;;;;;;;5050641;28;20025;-76
2022/09/08 05:13:31;;;;;;;22.80;16.88;;;;;;;;;;5051258;28;20036;-76
2022/09/08 05:16:07;;;;;;;23.73;16.70;;;;;;;;;;5051663;28;20033;-77
2022/09/08 05:18:35;;;;;;;31.08;16.23;;;;;;;;;;5052002;28;20029;-75
2022/09/08 05:21:01;;;;;;;25.27;16.75;;;;;;;;;;5050748;28;20033;-77
2022/09/08 05:23:27;;;;;;;24.88;19.27;;;;;;;;;;5053261;28;20112;-77
2022/09/08 05:26:01;;;;;;;23.33;15.10;;;;;;;;;;5052570;28;20025;-77
2022/09/08 05:28:30;;;;;;;29.63;16.35;;;;;;;;;;5053046;28;20174;-76
2022/09/08 05:30:56;;;;;;;28.08;18.23;;;;;;;;;;5053488;28;20460;-76
2022/09/08 05:33:23;;;;;;;20.10;15.60;;;;;;;;;;5053714;28;20405;-78
2022/09/08 05:35:49;;;;;;;24.48;16.23;;;;;;;;;;5071456;28;20029;-76
2022/09/08 05:38:15;;;;;;;22.85;16.48;;;;;;;;;;5053437;28;20032;-75
2022/09/08 05:40:40;;;;;;;22.98;15.80;;;;;;;;;;5053418;28;20032;-77
2022/09/08 05:43:06;;;;;;;24.27;17.25;;;;;;;;;;5070999;28;20040;-77
2022/09/08 05:45:32;;;;;;;27.60;17.13;;;;;;;;;;5053403;28;20021;-77
2022/09/08 05:47:57;;;;;;;30.33;16.85;;;;;;;;;;5053374;28;20031;-77
2022/09/08 05:50:23;;;;;;;22.88;15.75;;;;;;;;;;5052942;28;20017;-77
2022/09/08 05:52:48;;;;;;;27.45;16.92;;;;;;;;;;5074542;28;20469;-77
2022/09/08 05:55:14;;;;;;;23.13;15.65;;;;;;;;;;5073099;28;20036;-76
2022/09/08 05:57:40;;;;;;;26.40;16.42;;;;;;;;;;5064022;28;20502;-76
2022/09/08 06:00:09;;;;;;;28.10;17.58;;;;;;;;;;5053387;28;20730;-75
2022/09/08 06:02:34;;;;;;;20.52;15.18;;;;;;;;;;5066263;28;20670;-74
2022/09/08 06:05:00;;;;;;;30.27;20.25;;;;;;;;;;5061948;28;20034;-74
2022/09/08 06:07:31;;;;;;;28.35;17.45;;;;;;;;;;5061071;28;20034;-77
2022/09/08 06:09:57;;;;;;;21.55;16.30;;;;;;;;;;5069595;28;20115;-74
2022/09/08 06:12:22;;;;;;;37.03;16.23;;;;;;;;;;5062787;28;20139;-74
2022/09/08 06:14:48;;;;;;;23.25;15.95;;;;;;;;;;5075657;28;20040;-75
2022/09/08 06:17:14;;;;;;;21.13;15.55;;;;;;;;;;5077843;28;20587;-75
2022/09/08 06:19:40;;;;;;;23.80;16.77;;;;;;;;;;5079632;28;20035;-74
2022/09/08 06:22:05;;;;;;;22.58;15.45;;;;;;;;;;5059823;28;20032;-74
2022/09/08 06:24:31;;;;;;;44.72;17.85;;;;;;;;;;5061762;28;20039;-75
2022/09/08 06:27:18;;;;;;;30.45;15.73;;;;;;;;;;5061844;28;20040;-74
2022/09/08 06:29:47;;;;;;;31.08;16.02;;;;;;;;;;5058554;28;20052;-75
2022/09/08 06:32:43;;;;;;;42.92;26.40;;;;;;;;;;5056424;28;20082;-76
2022/09/08 06:35:14;;;;;;;43.50;26.63;;;;;;;;;;5056258;28;20032;-74
2022/09/08 06:37:54;;;;;;;39.17;24.02;;;;;;;;;;5053783;28;20036;-75
2022/09/08 06:40:28;;;;;;;34.97;19.98;;;;;;;;;;5057401;28;20028;-75
2022/09/08 06:43:18;;;;;;;23.80;17.58;;;;;;;;;;5059242;28;20495;-76
2022/09/08 06:45:49;;;;;;;24.35;17.73;;;;;;;;;;5059196;28;20767;-75
2022/09/08 06:48:31;;;;;;;33.72;17.92;;;;;;;;;;5059637;28;20220;-75
2022/09/08 06:51:18;;;;;;;21.95;15.77;;;;;;;;;;5054611;28;20047;-76
2022/09/08 06:54:09;;;;;;;29.70;17.95;;;;;;;;;;5072197;28;20032;-74
2022/09/08 06:57:09;;;;;;;24.53;18.03;;;;;;;;;;5055602;28;20194;-74
2022/09/08 06:59:42;;;;;;;28.67;16.77;;;;;;;;;;5058338;28;20305;-74
2022/09/08 07:02:07;;;;;;;27.25;16.52;;;;;;;;;;5055021;28;20040;-74
2022/09/08 07:04:43;;;;;;;26.63;17.25;;;;;;;;;;5055073;28;20054;-75
2022/09/08 07:07:40;;;;;;;34.08;18.25;;;;;;;;;;5058248;28;20029;-77
2022/09/08 07:10:41;;;;;;;31.77;16.98;;;;;;;;;;5058117;28;20041;-76
2022/09/08 07:13:24;;;;;;;24.75;17.63;;;;;;;;;;5049625;28;20047;-76
2022/09/08 07:16:03;;;;;;;27.02;17.63;;;;;;;;;;5056492;28;20461;-76
2022/09/08 07:18:36;;;;;;;23.65;16.95;;;;;;;;;;5044501;28;20135;-76
2022/09/08 07:21:27;;;;;;;25.77;17.73;;;;;;;;;;5057639;28;20032;-77
2022/09/08 07:23:54;;;;;;;;;;;;;;;;;;5053057;28;20036;-76
2022/09/08 07:26:37;;;;;;;24.17;16.45;;;;;;;;;;5053102;28;19943;-75
2022/09/08 07:29:09;;;;;;;32.58;17.65;;;;;;;;;;5048726;28;20070;-76
2022/09/08 07:31:40;;;;;;;26.40;16.95;;;;;;;;;;5054384;28;20056;-73
2022/09/08 07:34:15;;;;;;;30.83;20.60;;;;;;;;;;5057211;28;20032;-74
2022/09/08 07:36:47;;;;;;;23.42;16.35;;;;;;;;;;5041334;28;20044;-76
2022/09/08 07:39:24;;;;;;;26.40;17.10;;;;;;;;;;5063805;28;20041;-77
2022/09/08 07:41:54;;;;;;;24.88;15.57;;;;;;;;;;5063939;28;20017;-74
2022/09/08 07:44:21;;;;;;;25.13;16.25;;;;;;;;;;5067373;28;20024;-76
2022/09/08 07:46:49;;;;;;;24.60;15.00;;;;;;;;;;5065169;28;20606;-75
2022/09/08 07:49:29;;;;;;;24.80;16.15;;;;;;;;;;5056861;28;20032;-76
2022/09/08 07:52:13;;;;;;;28.35;15.25;;;;;;;;;;5056500;28;20028;-75
2022/09/08 07:54:59;;;;;;;35.55;22.08;;;;;;;;;;5074474;28;20085;-75
2022/09/08 07:58:02;;;;;;;23.13;14.57;;;;;;;;;;5059595;28;20044;-76
2022/09/08 08:00:34;;;;;;;19.25;14.02;;;;;;;;;;5054882;28;20085;-75
2022/09/08 08:03:28;;;;;;;21.13;14.05;;;;;;;;;;5055206;28;20709;-76
2022/09/08 08:06:13;;;;;;;21.20;14.80;;;;;;;;;;5056729;28;20036;-77
2022/09/08 08:09:16;;;;;;;25.48;15.63;;;;;;;;;;5054773;28;20036;-74
2022/09/08 08:12:00;;;;;;;31.65;16.35;;;;;;;;;;5052264;28;20032;-75
2022/09/08 08:14:46;;;;;;;28.88;15.75;;;;;;;;;;5057174;28;20544;-76
2022/09/08 08:17:36;;;;;;;24.17;16.77;;;;;;;;;;5057870;28;20075;-75
2022/09/08 08:20:26;;;;;;;20.40;16.02;;;;;;;;;;5059160;28;20105;-76
2022/09/08 08:23:26;;;;;;;21.90;15.60;;;;;;;;;;5057623;28;20039;-75
2022/09/08 08:26:34;;;;;;;24.42;15.10;;;;;;;;;;5053781;28;20101;-77
2022/09/08 08:29:35;;;;;;;25.63;15.93;;;;;;;;;;5056747;28;20056;-77
2022/09/08 08:32:18;;;;;;;27.90;16.77;;;;;;;;;;5057343;28;20048;-75
2022/09/08 08:34:58;;;;;;;25.10;16.40;;;;;;;;;;5057832;28;20025;-77
2022/09/08 08:37:29;;;;;;;24.92;16.25;;;;;;;;;;5059144;28;20075;-77
2022/09/08 08:39:55;;;;;;;32.65;17.73;;;;;;;;;;5057515;28;20036;-77
2022/09/08 08:43:06;;;;;;;23.17;16.02;;;;;;;;;;5057598;28;20036;-77
2022/09/08 08:45:58;;;;;;;27.08;15.65;;;;;;;;;;5056906;28;20143;-76
2022/09/08 08:48:42;;;;;;;30.58;16.33;;;;;;;;;;5057445;28;20039;-76
2022/09/08 08:51:37;;;;;;;28.42;17.38;;;;;;;;;;5060435;28;20051;-78
2022/09/08 08:54:31;;;;;;;26.98;16.10;;;;;;;;;;5047799;28;20074;-76
2022/09/08 08:57:35;;;;;;;20.98;13.10;;;;;;;;;;5062839;28;20036;-77
2022/09/08 09:00:20;;;;;;;41.22;14.20;;;;;;;;;;5062544;28;20059;-76
2022/09/08 09:02:52;;;;;;;17.38;11.50;;;;;;;;;;5061019;28;20028;-75
2022/09/08 09:05:26;;;;;;;22.83;13.00;;;;;;;;;;5059731;28;20090;-76
2022/09/08 09:08:24;;;;;;;35.58;13.43;;;;;;;;;;5064027;28;20063;-75
2022/09/08 09:11:18;;;;;;;29.80;12.10;;;;;;;;;;5059575;28;20040;-77
2022/09/08 09:13:58;;;;;;;30.95;13.02;;;;;;;;;;5056952;28;20028;-77
2022/09/08 09:16:49;;;;;;;27.60;12.38;;;;;;;;;;5059359;28;20056;-79
2022/09/08 09:19:27;;;;;;;22.23;12.30;;;;;;;;;;5061032;28;20036;-77
2022/09/08 09:22:14;;;;;;;23.15;12.20;;;;;;;;;;5061208;28;20554;-77
2022/09/08 09:25:11;;;;;;;18.23;11.10;;;;;;;;;;5060407;28;20227;-77
2022/09/08 09:27:45;;;;;;;15.00;11.40;;;;;;;;;;5039930;28;20059;-78
2022/09/08 09:30:22;;;;;;;18.50;11.15;;;;;;;;;;5059198;28;20079;-76
2022/09/08 09:33:25;;;;;;;15.15;10.18;;;;;;;;;;5062347;28;20051;-78
2022/09/08 09:36:09;;;;;;;18.30;11.05;;;;;;;;;;5060419;28;20033;-78
2022/09/08 09:38:44;;;;;;;15.93;10.85;;;;;;;;;;5065104;28;20037;-78
2022/09/08 09:41:28;;;;;;;19.40;12.25;;;;;;;;;;5063268;28;20028;-78
2022/09/08 09:44:03;;;;;;;17.02;11.30;;;;;;;;;;5063144;28;20032;-78
2022/09/08 09:46:52;;;;;;;15.43;10.30;;;;;;;;;;5058034;28;20033;-78
2022/09/08 09:49:53;;;;;;;28.38;12.27;;;;;;;;;;5058126;28;20032;-76
2022/09/08 09:52:44;;;;;;;14.93;10.25;;;;;;;;;;5058860;28;20123;-79
2022/09/08 09:55:23;;;;;;;13.60;10.30;;;;;;;;;;5058678;28;20123;-77
2022/09/08 09:58:11;;;;;;;18.98;11.40;;;;;;;;;;5062100;28;20794;-79
2022/09/08 10:01:05;;;;;;;16.67;10.50;;;;;;;;;;5072062;28;20064;-76
2022/09/08 10:03:53;;;;;;;17.27;10.70;;;;;;;;;;5060324;28;20940;-77
2022/09/08 10:06:23;;;;;;;21.05;10.90;;;;;;;;;;5062797;28;20102;-76
2022/09/08 10:09:10;;;;;;;14.70;10.05;;;;;;;;;;5059258;28;20036;-78
2022/09/08 10:12:12;;;;;;;18.65;10.70;;;;;;;;;;5063077;28;20094;-79
2022/09/08 10:14:56;;;;;;;16.42;9.70;;;;;;;;;;5058357;28;20036;-78
2022/09/08 10:17:24;;;;;;;11.02;9.05;;;;;;;;;;5055467;28;20063;-78
2022/09/08 10:20:23;;;;;;;11.75;9.80;;;;;;;;;;5061556;28;20043;-78
2022/09/08 10:23:16;;;;;;;15.50;9.52;;;;;;;;;;5060726;28;20124;-79
2022/09/08 10:26:03;;;;;;;38.13;12.00;;;;;;;;;;5057900;28;20028;-77
2022/09/08 10:28:44;;;;;;;16.00;9.27;;;;;;;;;;5061097;28;20103;-77
2022/09/08 10:31:12;;;;;;;;;;;;;;;;;;5080583;28;20108;-77
2022/09/08 10:34:09;;;;;;;19.38;10.05;;;;;;;;;;5073321;28;19927;-79
2022/09/08 10:37:00;;;;;;;17.50;9.85;;;;;;;;;;5054360;28;20044;-76
2022/09/08 10:39:47;;;;;;;15.90;9.05;;;;;;;;;;5061029;28;20162;-78
2022/09/08 10:42:41;;;;;;;10.60;8.38;;;;;;;;;;5063146;28;20114;-77
2022/09/08 10:45:16;;;;;;;15.60;9.88;;;;;;;;;;5078613;28;20036;-75
2022/09/08 10:47:59;;;;;;;26.63;9.45;;;;;;;;;;5082554;28;20614;-76
2022/09/08 10:50:29;;;;;;;20.17;8.90;;;;;;;;;;5062013;28;20369;-74
2022/09/08 10:53:57;;;;;;;18.17;6.95;;;;;;;;;;5060431;28;20099;-75
2022/09/08 10:56:32;;;;;;;9.30;5.22;;;;;;;;;;5080238;28;20115;-77
2022/09/08 10:59:45;;;;;;;6.43;4.95;;;;;;;;;;5080122;28;20020;-74
2022/09/08 11:05:46;;;;;;;4.10;2.50;;;;;;;;;;5060088;28;20039;-79
2022/09/08 11:08:57;;;;;;;3.75;2.65;;;;;;;;;;5065456;28;20036;-75
2022/09/08 11:11:55;;;;;;;8.73;2.40;;;;;;;;;;5012052;28;20125;-77
2022/09/08 11:14:26;;;;;;;20.27;3.25;;;;;;;;;;5066755;28;20031;-78
2022/09/08 11:17:39;;;;;;;9.82;3.13;;;;;;;;;;5082084;28;20552;-75
2022/09/08 11:20:46;;;;;;;15.35;3.47;;;;;;;;;;5044638;28;20489;-77
2022/09/08 11:23:50;;;;;;;13.15;3.05;;;;;;;;;;5051044;28;20047;-76
2022/09/08 11:26:28;;;;;;;11.70;2.75;;;;;;;;;;5060890;28;20060;-76
2022/09/08 11:29:30;;;;;;;5.53;2.35;;;;;;;;;;5060075;28;20040;-74
2022/09/08 11:32:19;;;;;;;5.93;2.17;;;;;;;;;;5027090;28;20114;-74
2022/09/08 11:35:59;;;;;;;13.27;2.65;;;;;;;;;;5060357;28;20052;-77
2022/09/08 11:38:29;;;;;;;15.57;3.50;;;;;;;;;;5026035;28;20679;-79
2022/09/08 11:41:37;;;;;;;8.57;3.35;;;;;;;;;;5007775;28;20025;-76
2022/09/08 11:44:54;;;;;;;4.22;1.98;;;;;;;;;;5053165;28;20037;-75
2022/09/08 11:47:38;;;;;;;3.15;2.10;;;;;;;;;;5038622;28;20040;-78
2022/09/08 11:50:36;;;;;;;6.07;2.60;;;;;;;;;;5071336;28;20035;-75
2022/09/08 11:53:11;;;;;;;4.22;2.10;;;;;;;;;;5034568;28;20044;-78
2022/09/08 11:56:12;;;;;;;4.15;2.08;;;;;;;;;;5076543;28;20024;-77
2022/09/08 11:59:25;;;;;;;5.28;2.20;;;;;;;;;;5065909;28;20032;-77
2022/09/08 12:01:54;;;;;;;7.25;1.80;;;;;;;;;;5033402;28;20833;-77
2022/09/08 12:04:39;;;;;;;1.60;1.50;;;;;;;;;;5059613;28;20449;-76
2022/09/08 12:07:15;;;;;;;7.00;2.25;;;;;;;;;;5065587;28;20112;-76
2022/09/08 12:09:41;;;;;;;5.35;2.22;;;;;;;;;;5067788;28;20024;-78
2022/09/08 12:12:34;;;;;;;9.95;2.63;;;;;;;;;;5061453;28;20039;-78
2022/09/08 12:15:17;;;;;;;11.05;2.33;;;;;;;;;;5067403;28;20028;-76
2022/09/08 12:18:10;;;;;;;7.60;2.70;;;;;;;;;;5064548;28;20032;-77
2022/09/08 12:21:12;;;;;;;11.38;2.70;;;;;;;;;;5068244;28;20131;-76
2022/09/08 12:23:52;;;;;;;8.10;2.45;;;;;;;;;;5064863;28;20055;-77
2022/09/08 12:26:46;;;;;;;8.32;3.25;;;;;;;;;;5069744;28;20036;-78
2022/09/08 12:29:49;;;;;;;7.00;2.08;;;;;;;;;;5068983;28;20297;-77
2022/09/08 12:32:45;;;;;;;3.00;2.50;;;;;;;;;;5065833;28;20040;-75
2022/09/08 12:35:45;;;;;;;3.10;2.05;;;;;;;;;;5067978;28;20024;-78
2022/09/08 12:38:22;;;;;;;2.42;2.20;;;;;;;;;;5070273;28;20075;-78
2022/09/08 12:41:05;;;;;;;2.42;2.10;;;;;;;;;;5067817;28;20052;-78
2022/09/08 12:43:39;;;;;;;3.83;2.25;;;;;;;;;;5067026;28;20032;-77
2022/09/08 12:46:27;;;;;;;4.80;2.25;;;;;;;;;;5070211;28;20185;-77
2022/09/08 12:48:59;;;;;;;4.85;2.65;;;;;;;;;;5064323;28;20036;-76
2022/09/08 12:51:30;;;;;;;2.83;2.33;;;;;;;;;;5068144;28;20111;-77
2022/09/08 12:53:56;;;;;;;5.35;3.10;;;;;;;;;;5064804;28;20530;-75
2022/09/08 12:56:35;;;;;;;2.85;2.65;;;;;;;;;;5060738;28;20049;-77
2022/09/08 12:59:28;;;;;;;5.43;3.65;;;;;;;;;;5068352;28;20146;-75
2022/09/08 13:02:28;;;;;;;2.95;2.75;;;;;;;;;;5067956;28;20028;-76
2022/09/08 13:05:09;;;;;;;4.72;2.78;;;;;;;;;;5021494;28;20054;-76
2022/09/08 13:08:13;;;;;;;6.88;2.70;;;;;;;;;;5064883;28;20036;-76
2022/09/08 13:10:41;;;;;;;3.17;2.50;;;;;;;;;;5036781;28;20075;-76
2022/09/08 13:13:06;;;;;;;4.50;2.53;;;;;;;;;;5065266;28;20509;-76
2022/09/08 13:15:50;;;;;;;4.35;2.40;;;;;;;;;;5064167;28;20119;-76
2022/09/08 13:18:36;;;;;;;2.28;2.15;;;;;;;;;;5063864;28;20527;-77
2022/09/08 13:21:38;;;;;;;3.13;2.50;;;;;;;;;;5069432;28;20081;-78
2022/09/08 13:24:49;;;;;;;1.70;1.58;;;;;;;;;;5069907;28;20063;-77
2022/09/08 13:27:23;;;;;;;3.70;2.20;;;;;;;;;;5058819;28;20411;-77
2022/09/08 13:30:24;;;;;;;4.72;2.40;;;;;;;;;;5063191;28;20099;-77
2022/09/08 13:32:50;;;;;;;4.22;1.70;;;;;;;;;;5080208;28;20045;-77
2022/09/08 13:35:22;;;;;;;1.55;1.45;;;;;;;;;;5064587;28;20036;-78
2022/09/08 13:38:32;;;;;;;1.83;1.73;;;;;;;;;;5058748;28;20511;-77
2022/09/08 13:41:17;;;;;;;4.55;1.48;;;;;;;;;;5060039;28;20498;-77
2022/09/08 13:43:48;;;;;;;2.67;2.13;;;;;;;;;;5064353;28;20036;-78
2022/09/08 13:46:16;;;;;;;1.42;1.33;;;;;;;;;;5057208;28;20465;-76
2022/09/08 13:48:45;;;;;;;1.80;1.60;;;;;;;;;;5070648;28;20059;-77
2022/09/08 13:51:21;;;;;;;1.92;1.30;;;;;;;;;;5065312;28;20030;-77
2022/09/08 13:54:16;;;;;;;2.63;1.40;;;;;;;;;;5069420;28;20812;-77
2022/09/08 13:57:20;;;;;;;1.48;1.27;;;;;;;;;;5069757;28;20028;-77
2022/09/08 14:00:12;;;;;;;4.68;2.00;;;;;;;;;;5071348;28;20055;-78
2022/09/08 14:02:55;;;;;;;5.35;1.95;;;;;;;;;;5067736;28;20350;-77
2022/09/08 14:05:29;;;;;;;1.58;1.13;;;;;;;;;;5064874;28;20044;-75
2022/09/08 14:08:04;;;;;;;3.17;1.17;;;;;;;;;;5058886;28;20024;-77
2022/09/08 14:10:42;;;;;;;3.72;0.88;;;;;;;;;;5067769;28;20546;-77
2022/09/08 14:13:10;;;;;;;1.02;0.90;;;;;;;;;;5064563;28;20039;-76
2022/09/08 14:16:04;;;;;;;4.22;2.83;;;;;;;;;;5048971;28;20504;-78
2022/09/08 14:18:37;;;;;;;1.90;1.52;;;;;;;;;;5066880;28;20432;-77
2022/09/08 14:21:14;;;;;;;1.55;1.30;;;;;;;;;;5054915;28;20205;-77
2022/09/08 14:24:04;;;;;;;1.48;0.98;;;;;;;;;;5061631;28;20032;-74
2022/09/08 14:26:35;;;;;;;1.77;1.30;;;;;;;;;;5063844;28;20117;-76
2022/09/08 14:29:09;;;;;;;2.80;1.40;;;;;;;;;;5067884;28;20123;-77
2022/09/08 14:32:10;;;;;;;3.05;1.33;;;;;;;;;;5096102;28;20028;-76
2022/09/08 14:35:04;;;;;;;4.07;1.15;;;;;;;;;;5069258;28;20082;-77
2022/09/08 14:37:31;;;;;;;1.50;1.40;;;;;;;;;;5056224;28;20138;-76
2022/09/08 14:40:15;;;;;;;2.22;1.10;;;;;;;;;;5084897;28;20032;-76
2022/09/08 14:42:41;;;;;;;4.05;1.70;;;;;;;;;;5057327;28;20115;-77
2022/09/08 14:45:30;;;;;;;6.20;3.70;;;;;;;;;;5070453;28;20099;-77
2022/09/08 14:48:01;;;;;;;6.72;2.03;;;;;;;;;;5051210;28;20032;-76
2022/09/08 14:50:57;;;;;;;2.00;1.90;;;;;;;;;;5071027;28;20552;-76
2022/09/08 14:53:32;;;;;;;3.08;2.03;;;;;;;;;;5051495;28;20389;-76
2022/09/08 14:56:17;;;;;;;5.30;2.22;;;;;;;;;;5052018;28;20039;-76
2022/09/08 14:59:03;;;;;;;4.93;2.80;;;;;;;;;;5051498;28;20373;-75
2022/09/08 15:01:33;;;;;;;4.18;2.40;;;;;;;;;;5068678;28;20065;-77
2022/09/08 15:04:04;;;;;;;4.40;2.35;;;;;;;;;;5090564;28;20020;-77
2022/09/08 15:06:46;;;;;;;;;;;;;;;;;;5054933;28;20027;-76
2022/09/08 15:09:23;;;;;;;2.45;2.08;;;;;;;;;;5071428;28;20360;-76
2022/09/08 15:11:56;;;;;;;4.65;2.15;;;;;;;;;;5080898;28;20456;-76
2022/09/08 15:14:30;;;;;;;4.88;2.60;;;;;;;;;;5085345;28;20564;-78
2022/09/08 15:17:05;;;;;;;5.72;2.40;;;;;;;;;;5090503;28;20500;-77
2022/09/08 15:20:03;;;;;;;8.63;2.22;;;;;;;;;;5091029;28;20019;-76
2022/09/08 15:22:41;;;;;;;2.88;1.30;;;;;;;;;;5044665;28;20467;-77
2022/09/08 15:25:21;;;;;;;5.10;1.80;;;;;;;;;;5090457;28;20032;-76
2022/09/08 15:27:48;;;;;;;3.67;2.10;;;;;;;;;;5073488;28;20023;-76
2022/09/08 15:30:22;;;;;;;3.53;1.75;;;;;;;;;;5072876;28;20402;-76
2022/09/08 15:33:00;;;;;;;8.45;2.00;;;;;;;;;;5068558;28;20032;-76